Decoded Metar for KHIE (WHITEFIELD in NH, USA) (IATA:HIE) | Meteo·Mobile Aviation Weather
aviador You're here:

KHIE Decoded Metar

WHITEFIELD in NH, USA
Report Time2019-01-18 10:52:00
UTC Time2019-01-18 11:28:13
Flight Rules vfr VFR
WindCalm
Visibility9999 m
Phenomena:N/A
Clouds:Broken 042 Hf
Overcast 049 Hf
Expected CloudBase > 1,200 ft AGL from Temp-Dew spread
Ceiling4,200 ft
Temp-14°C (ISA -27)
Dew Point-17°C (78% RH)
AAT-17.5°C
QNH1018 hPa
Density Alt-2,493 ft
Elevation1,043 ft
Report Wrong Elevation
Raw Report
KHIE 181052Z AUTO 00000KT 10SM BKN042 OVC049 M14/M17 A3006 RMK AO2
SLP208 T11391167=

Extra information for KHIE:More info

Metar Taf Metar & Taf Last 4 Metars F.Rules Stats Wind Profile Meteogram Temp Stats Airport Information Weather charts Add Link Nearby VenuesMetar ALERT Operation Metar Decoded Social comments

AIRNAV info for KHIE